Airfield :
LOGIN :

Register | Disclaimer

   EN    FR    IT 

 










Legend :    VFR   Marginal VFR   IFR   Intensive IFR   Very Intensive IFR
Visi :
Ceiling :
>= 8 km
>= 3000ft
5 to 8 km
1000 to 3000 ft
1500m to 5 km
500 to 1000 ft
800 to 1500m
200 to 500 ft
< 800m
< 200 ft
Symbols :   Thunderstorms  Fog  Heavy snow  Heavy precipitations  Wind > 20 kt
SIGMETs :     Misc.  Thunderstorms  Icing  Turbulence  Mountain Waves  Volcanic Ashes






- Airport Elevation : 220 ft
- IATA code : CWL


EGFF - Cardiff Rhoose

CURRENT METAR :
  • 262020Z AUTO 23006KT 9999 FEW035 07/06 Q1005

EXPIRED METARs :
  • 261950Z AUTO 25005KT 9999 SCT037 07/06 Q1005
  • 261920Z AUTO 26006KT 9999 SCT013 BKN040 08/06 Q1005
  • 261850Z AUTO 26007KT 9999 FEW012 BKN039 08/07 Q1005
  • 261820Z AUTO 26008KT 9999 SCT011 BKN047 08/07 Q1005
  • 261750Z AUTO 26008KT 9999 FEW047 08/07 Q1005

TAF TAF EGFF
Valid from the 26 at 18:00 until the 27 at 18:00 UTC


261659Z 2618/2718 26010KT 9999 SCT018
BECMG 2618/2621 20008KT
PROB30
TEMPO 2618/2623 BKN012
TEMPO 2623/2718 6000 SHRA BKN010
PROB30
TEMPO 2623/2706 20015G25KT 3000 +SHRA BKN008
ATIS : +44 1446 729 319



MET'MAP, your aeronautical weather chart ! - Copyright ORBIFLY December 2007 - Disclaimer

ORBIFLY MET'MAP TEAM :

Programming & Development : Alexandra Zaïnal
Concept & original design : Baudouin d'Aumeries
Assistance for programming : Marc-Olivier Méhu
Technical & hardware support : Manuel Goepfert

Contact : metmap@orbifly.com




SOURCES & CREDITS :

   NOAA